sensor_id;sensor_type;location;lat;lon;timestamp;pressure;altitude;pressure_sealevel;temperature
38249;BMP280;24045;51.138;17.126;2023-07-24T00:08:22;99615.70;;;19.63
38249;BMP280;24045;51.138;17.126;2023-07-24T00:23:25;99602.15;;;18.96
38249;BMP280;24045;51.138;17.126;2023-07-24T00:38:28;99597.77;;;18.34
38249;BMP280;24045;51.138;17.126;2023-07-24T00:53:32;99592.52;;;17.78
38249;BMP280;24045;51.138;17.126;2023-07-24T01:08:36;99572.84;;;17.36
38249;BMP280;24045;51.138;17.126;2023-07-24T01:38:50;99599.07;;;16.82
38249;BMP280;24045;51.138;17.126;2023-07-24T01:53:53;99595.72;;;17.02
38249;BMP280;24045;51.138;17.126;2023-07-24T02:08:56;99579.35;;;17.27
38249;BMP280;24045;51.138;17.126;2023-07-24T02:23:58;99573.73;;;17.15
38249;BMP280;24045;51.138;17.126;2023-07-24T02:39:01;99549.23;;;17.13
38249;BMP280;24045;51.138;17.126;2023-07-24T02:54:04;99540.29;;;17.63
38249;BMP280;24045;51.138;17.126;2023-07-24T03:09:09;99535.70;;;18.00
38249;BMP280;24045;51.138;17.126;2023-07-24T03:24:12;99521.84;;;18.09
38249;BMP280;24045;51.138;17.126;2023-07-24T03:39:14;99528.35;;;18.07
38249;BMP280;24045;51.138;17.126;2023-07-24T03:54:17;99530.91;;;18.05
38249;BMP280;24045;51.138;17.126;2023-07-24T04:09:20;99525.28;;;18.76
38249;BMP280;24045;51.138;17.126;2023-07-24T04:24:23;99516.81;;;19.76
38249;BMP280;24045;51.138;17.126;2023-07-24T04:39:26;99531.67;;;20.31
38249;BMP280;24045;51.138;17.126;2023-07-24T04:54:28;99535.75;;;21.89
38249;BMP280;24045;51.138;17.126;2023-07-24T05:09:32;99521.98;;;22.71
38249;BMP280;24045;51.138;17.126;2023-07-24T05:24:35;99521.98;;;22.60
38249;BMP280;24045;51.138;17.126;2023-07-24T05:39:38;99506.54;;;22.87
38249;BMP280;24045;51.138;17.126;2023-07-24T05:54:41;99486.77;;;23.45
38249;BMP280;24045;51.138;17.126;2023-07-24T06:09:44;99459.83;;;24.75
38249;BMP280;24045;51.138;17.126;2023-07-24T06:24:47;99452.77;;;25.49
38249;BMP280;24045;51.138;17.126;2023-07-24T06:39:50;99439.48;;;25.18
38249;BMP280;24045;51.138;17.126;2023-07-24T06:54:53;99443.85;;;24.61
38249;BMP280;24045;51.138;17.126;2023-07-24T07:09:56;99435.13;;;24.61
38249;BMP280;24045;51.138;17.126;2023-07-24T07:24:59;99420.61;;;26.07
38249;BMP280;24045;51.138;17.126;2023-07-24T07:40:02;99404.63;;;29.50
38249;BMP280;24045;51.138;17.126;2023-07-24T07:55:06;99408.28;;;32.28
38249;BMP280;24045;51.138;17.126;2023-07-24T08:10:10;99384.13;;;34.84
38249;BMP280;24045;51.138;17.126;2023-07-24T08:25:13;99379.06;;;36.53
38249;BMP280;24045;51.138;17.126;2023-07-24T08:40:16;99367.83;;;36.05
38249;BMP280;24045;51.138;17.126;2023-07-24T08:55:20;99378.17;;;36.32
38249;BMP280;24045;51.138;17.126;2023-07-24T09:10:26;99366.10;;;36.97
38249;BMP280;24045;51.138;17.126;2023-07-24T09:25:32;99346.55;;;35.72
38249;BMP280;24045;51.138;17.126;2023-07-24T09:40:38;99328.20;;;33.48
38249;BMP280;24045;51.138;17.126;2023-07-24T09:55:49;99324.08;;;33.42
38249;BMP280;24045;51.138;17.126;2023-07-24T10:10:54;99302.02;;;33.91
38249;BMP280;24045;51.138;17.126;2023-07-24T10:26:05;99303.38;;;36.19
38249;BMP280;24045;51.138;17.126;2023-07-24T10:41:14;99287.35;;;36.19
38249;BMP280;24045;51.138;17.126;2023-07-24T10:56:17;99298.20;;;34.56
38249;BMP280;24045;51.138;17.126;2023-07-24T11:11:20;99285.00;;;31.97
38249;BMP280;24045;51.138;17.126;2023-07-24T11:26:24;99252.48;;;30.96
38249;BMP280;24045;51.138;17.126;2023-07-24T11:41:28;99234.90;;;31.43
38249;BMP280;24045;51.138;17.126;2023-07-24T11:56:32;99236.16;;;31.46
38249;BMP280;24045;51.138;17.126;2023-07-24T12:11:40;99221.20;;;31.41
38249;BMP280;24045;51.138;17.126;2023-07-24T12:26:47;99194.69;;;31.81
38249;BMP280;24045;51.138;17.126;2023-07-24T12:41:50;99177.73;;;31.89
38249;BMP280;24045;51.138;17.126;2023-07-24T12:56:53;99163.27;;;31.53
38249;BMP280;24045;51.138;17.126;2023-07-24T13:11:56;99134.20;;;31.92
38249;BMP280;24045;51.138;17.126;2023-07-24T13:26:59;99123.50;;;32.00
38249;BMP280;24045;51.138;17.126;2023-07-24T13:42:02;99113.23;;;31.93
38249;BMP280;24045;51.138;17.126;2023-07-24T13:57:06;99088.96;;;31.61
38249;BMP280;24045;51.138;17.126;2023-07-24T14:12:11;99077.32;;;31.48
38249;BMP280;24045;51.138;17.126;2023-07-24T14:27:14;99025.02;;;31.73
38249;BMP280;24045;51.138;17.126;2023-07-24T14:42:17;99041.61;;;31.60
38249;BMP280;24045;51.138;17.126;2023-07-24T14:57:21;99015.59;;;31.21
38249;BMP280;24045;51.138;17.126;2023-07-24T15:12:27;98986.36;;;31.05
38249;BMP280;24045;51.138;17.126;2023-07-24T15:27:31;98957.02;;;31.13
38249;BMP280;24045;51.138;17.126;2023-07-24T15:42:33;98953.12;;;30.68
38249;BMP280;24045;51.138;17.126;2023-07-24T15:57:36;98922.44;;;29.96
38249;BMP280;24045;51.138;17.126;2023-07-24T16:12:39;98904.15;;;29.70
38249;BMP280;24045;51.138;17.126;2023-07-24T16:27:42;98905.44;;;29.50
38249;BMP280;24045;51.138;17.126;2023-07-24T16:42:45;98901.64;;;29.17
38249;BMP280;24045;51.138;17.126;2023-07-24T16:57:48;98869.46;;;28.87
38249;BMP280;24045;51.138;17.126;2023-07-24T17:12:51;98844.83;;;28.43
38249;BMP280;24045;51.138;17.126;2023-07-24T17:27:54;98868.73;;;28.03
38249;BMP280;24045;51.138;17.126;2023-07-24T17:42:57;98839.55;;;27.73
38249;BMP280;24045;51.138;17.126;2023-07-24T17:58:00;98853.17;;;27.31
38249;BMP280;24045;51.138;17.126;2023-07-24T18:13:03;98844.23;;;26.95
38249;BMP280;24045;51.138;17.126;2023-07-24T18:28:06;98838.02;;;26.73
38249;BMP280;24045;51.138;17.126;2023-07-24T18:43:09;98842.13;;;26.45
38249;BMP280;24045;51.138;17.126;2023-07-24T18:58:12;98854.75;;;26.13
38249;BMP280;24045;51.138;17.126;2023-07-24T19:13:15;98843.59;;;25.64
38249;BMP280;24045;51.138;17.126;2023-07-24T19:28:17;98854.33;;;25.38
38249;BMP280;24045;51.138;17.126;2023-07-24T19:43:20;98825.31;;;25.12
38249;BMP280;24045;51.138;17.126;2023-07-24T19:58:23;98814.80;;;24.86
38249;BMP280;24045;51.138;17.126;2023-07-24T20:13:29;98812.05;;;24.33
38249;BMP280;24045;51.138;17.126;2023-07-24T20:28:32;98822.89;;;24.01
38249;BMP280;24045;51.138;17.126;2023-07-24T20:43:35;98824.95;;;23.60
38249;BMP280;24045;51.138;17.126;2023-07-24T20:58:38;98830.98;;;23.13
38249;BMP280;24045;51.138;17.126;2023-07-24T21:13:42;98833.13;;;22.43
38249;BMP280;24045;51.138;17.126;2023-07-24T21:28:44;98836.52;;;22.41
38249;BMP280;24045;51.138;17.126;2023-07-24T21:43:47;98834.63;;;22.81
38249;BMP280;24045;51.138;17.126;2023-07-24T21:58:50;98841.83;;;22.96
38249;BMP280;24045;51.138;17.126;2023-07-24T22:13:53;98852.45;;;22.87
38249;BMP280;24045;51.138;17.126;2023-07-24T22:28:56;98857.42;;;22.56
38249;BMP280;24045;51.138;17.126;2023-07-24T22:43:59;98860.27;;;22.44
38249;BMP280;24045;51.138;17.126;2023-07-24T23:14:04;98902.86;;;22.24
38249;BMP280;24045;51.138;17.126;2023-07-24T23:29:07;98917.83;;;22.12
38249;BMP280;24045;51.138;17.126;2023-07-24T23:44:10;98932.18;;;21.82
38249;BMP280;24045;51.138;17.126;2023-07-24T23:59:13;98921.18;;;21.44
